sensor_id;sensor_type;location;lat;lon;timestamp;P1;durP1;ratioP1;P2;durP2;ratioP2
43809;SDS011;29440;48.208;11.162;2023-06-14T00:01:47;5.38;;;2.35;;
43809;SDS011;29440;48.208;11.162;2023-06-14T00:04:13;5.15;;;1.98;;
43809;SDS011;29440;48.208;11.162;2023-06-14T00:06:41;4.53;;;2.47;;
43809;SDS011;29440;48.208;11.162;2023-06-14T00:09:07;4.50;;;2.20;;
43809;SDS011;29440;48.208;11.162;2023-06-14T00:11:33;3.88;;;2.17;;
43809;SDS011;29440;48.208;11.162;2023-06-14T00:13:59;5.45;;;2.28;;
43809;SDS011;29440;48.208;11.162;2023-06-14T00:16:24;4.10;;;2.33;;
43809;SDS011;29440;48.208;11.162;2023-06-14T00:18:50;5.47;;;2.30;;
43809;SDS011;29440;48.208;11.162;2023-06-14T00:21:18;4.20;;;2.15;;
43809;SDS011;29440;48.208;11.162;2023-06-14T00:23:44;3.92;;;2.17;;
43809;SDS011;29440;48.208;11.162;2023-06-14T00:26:09;3.35;;;2.22;;
43809;SDS011;29440;48.208;11.162;2023-06-14T00:28:35;4.38;;;2.30;;
43809;SDS011;29440;48.208;11.162;2023-06-14T00:31:01;4.13;;;2.55;;
43809;SDS011;29440;48.208;11.162;2023-06-14T00:33:26;3.58;;;2.40;;
43809;SDS011;29440;48.208;11.162;2023-06-14T00:35:52;4.90;;;2.15;;
43809;SDS011;29440;48.208;11.162;2023-06-14T00:38:20;3.55;;;2.47;;
43809;SDS011;29440;48.208;11.162;2023-06-14T00:40:46;6.28;;;2.75;;
43809;SDS011;29440;48.208;11.162;2023-06-14T00:43:12;2.80;;;2.15;;
43809;SDS011;29440;48.208;11.162;2023-06-14T00:45:37;7.65;;;2.65;;
43809;SDS011;29440;48.208;11.162;2023-06-14T00:48:03;3.95;;;2.53;;
43809;SDS011;29440;48.208;11.162;2023-06-14T00:50:31;3.22;;;1.85;;
43809;SDS011;29440;48.208;11.162;2023-06-14T00:52:58;3.90;;;2.28;;
43809;SDS011;29440;48.208;11.162;2023-06-14T00:55:24;4.50;;;2.47;;
43809;SDS011;29440;48.208;11.162;2023-06-14T00:57:50;4.03;;;2.30;;
43809;SDS011;29440;48.208;11.162;2023-06-14T01:00:16;4.95;;;2.28;;
43809;SDS011;29440;48.208;11.162;2023-06-14T01:02:42;5.72;;;2.28;;
43809;SDS011;29440;48.208;11.162;2023-06-14T01:05:07;3.95;;;2.67;;
43809;SDS011;29440;48.208;11.162;2023-06-14T01:07:46;5.85;;;2.58;;
43809;SDS011;29440;48.208;11.162;2023-06-14T01:10:31;4.50;;;2.70;;
43809;SDS011;29440;48.208;11.162;2023-06-14T01:13:28;4.03;;;2.53;;
43809;SDS011;29440;48.208;11.162;2023-06-14T01:15:58;4.50;;;2.50;;
43809;SDS011;29440;48.208;11.162;2023-06-14T01:18:24;5.15;;;2.50;;
43809;SDS011;29440;48.208;11.162;2023-06-14T01:20:51;5.72;;;2.80;;
43809;SDS011;29440;48.208;11.162;2023-06-14T01:23:20;12.30;;;4.15;;
43809;SDS011;29440;48.208;11.162;2023-06-14T01:25:47;4.03;;;2.35;;
43809;SDS011;29440;48.208;11.162;2023-06-14T01:28:17;4.28;;;2.50;;
43809;SDS011;29440;48.208;11.162;2023-06-14T01:30:45;5.05;;;2.35;;
43809;SDS011;29440;48.208;11.162;2023-06-14T01:33:19;3.10;;;2.30;;
43809;SDS011;29440;48.208;11.162;2023-06-14T01:35:52;4.53;;;2.40;;
43809;SDS011;29440;48.208;11.162;2023-06-14T01:38:20;3.72;;;2.38;;
43809;SDS011;29440;48.208;11.162;2023-06-14T01:40:48;3.35;;;2.20;;
43809;SDS011;29440;48.208;11.162;2023-06-14T01:43:16;4.57;;;2.63;;
43809;SDS011;29440;48.208;11.162;2023-06-14T01:45:44;6.35;;;2.85;;
43809;SDS011;29440;48.208;11.162;2023-06-14T01:48:12;3.92;;;2.60;;
43809;SDS011;29440;48.208;11.162;2023-06-14T01:50:38;4.47;;;2.83;;
43809;SDS011;29440;48.208;11.162;2023-06-14T01:53:06;6.60;;;2.42;;
43809;SDS011;29440;48.208;11.162;2023-06-14T01:55:32;4.78;;;2.22;;
43809;SDS011;29440;48.208;11.162;2023-06-14T01:58:02;4.30;;;2.40;;
43809;SDS011;29440;48.208;11.162;2023-06-14T02:00:28;3.80;;;2.53;;
43809;SDS011;29440;48.208;11.162;2023-06-14T02:02:53;5.07;;;2.45;;
43809;SDS011;29440;48.208;11.162;2023-06-14T02:05:19;5.32;;;2.58;;
43809;SDS011;29440;48.208;11.162;2023-06-14T02:07:45;5.07;;;2.55;;
43809;SDS011;29440;48.208;11.162;2023-06-14T02:10:11;4.95;;;2.75;;
43809;SDS011;29440;48.208;11.162;2023-06-14T02:12:36;7.97;;;2.90;;
43809;SDS011;29440;48.208;11.162;2023-06-14T02:15:02;4.60;;;2.50;;
43809;SDS011;29440;48.208;11.162;2023-06-14T02:17:29;3.72;;;2.55;;
43809;SDS011;29440;48.208;11.162;2023-06-14T02:19:54;8.05;;;2.60;;
43809;SDS011;29440;48.208;11.162;2023-06-14T02:22:22;5.72;;;2.83;;
43809;SDS011;29440;48.208;11.162;2023-06-14T02:24:47;4.10;;;2.90;;
43809;SDS011;29440;48.208;11.162;2023-06-14T02:27:13;6.88;;;3.70;;
43809;SDS011;29440;48.208;11.162;2023-06-14T02:29:39;3.53;;;2.50;;
43809;SDS011;29440;48.208;11.162;2023-06-14T02:32:05;4.63;;;2.38;;
43809;SDS011;29440;48.208;11.162;2023-06-14T02:34:32;5.75;;;2.85;;
43809;SDS011;29440;48.208;11.162;2023-06-14T02:36:59;5.38;;;2.80;;
43809;SDS011;29440;48.208;11.162;2023-06-14T02:39:24;8.55;;;2.72;;
43809;SDS011;29440;48.208;11.162;2023-06-14T02:41:50;4.57;;;2.22;;
43809;SDS011;29440;48.208;11.162;2023-06-14T02:44:17;6.03;;;3.10;;
43809;SDS011;29440;48.208;11.162;2023-06-14T02:46:43;5.38;;;2.85;;
43809;SDS011;29440;48.208;11.162;2023-06-14T02:49:09;4.40;;;2.45;;
43809;SDS011;29440;48.208;11.162;2023-06-14T02:51:35;3.80;;;2.47;;
43809;SDS011;29440;48.208;11.162;2023-06-14T02:54:00;5.78;;;2.75;;
43809;SDS011;29440;48.208;11.162;2023-06-14T02:56:26;5.55;;;2.60;;
43809;SDS011;29440;48.208;11.162;2023-06-14T02:58:52;4.47;;;2.50;;
43809;SDS011;29440;48.208;11.162;2023-06-14T03:01:18;3.88;;;2.30;;
43809;SDS011;29440;48.208;11.162;2023-06-14T03:06:22;4.75;;;2.85;;
43809;SDS011;29440;48.208;11.162;2023-06-14T03:08:50;7.63;;;2.45;;
43809;SDS011;29440;48.208;11.162;2023-06-14T03:11:16;5.47;;;2.55;;
43809;SDS011;29440;48.208;11.162;2023-06-14T03:13:45;3.45;;;2.35;;
43809;SDS011;29440;48.208;11.162;2023-06-14T03:16:11;3.67;;;2.30;;
43809;SDS011;29440;48.208;11.162;2023-06-14T03:18:37;3.20;;;2.25;;
43809;SDS011;29440;48.208;11.162;2023-06-14T03:21:03;4.78;;;3.00;;
43809;SDS011;29440;48.208;11.162;2023-06-14T03:23:29;5.30;;;2.35;;
43809;SDS011;29440;48.208;11.162;2023-06-14T03:25:56;12.00;;;3.03;;
43809;SDS011;29440;48.208;11.162;2023-06-14T03:28:21;9.30;;;2.35;;
43809;SDS011;29440;48.208;11.162;2023-06-14T03:30:47;5.18;;;3.20;;
43809;SDS011;29440;48.208;11.162;2023-06-14T03:33:13;7.60;;;3.00;;
43809;SDS011;29440;48.208;11.162;2023-06-14T03:35:38;8.75;;;2.83;;
43809;SDS011;29440;48.208;11.162;2023-06-14T03:38:04;7.40;;;3.35;;
43809;SDS011;29440;48.208;11.162;2023-06-14T03:40:30;4.55;;;2.95;;
43809;SDS011;29440;48.208;11.162;2023-06-14T03:42:56;8.55;;;3.10;;
43809;SDS011;29440;48.208;11.162;2023-06-14T03:45:21;9.10;;;4.43;;
43809;SDS011;29440;48.208;11.162;2023-06-14T03:47:47;5.45;;;3.40;;
43809;SDS011;29440;48.208;11.162;2023-06-14T03:50:13;7.45;;;3.70;;
43809;SDS011;29440;48.208;11.162;2023-06-14T03:52:38;4.38;;;3.38;;
43809;SDS011;29440;48.208;11.162;2023-06-14T03:55:04;5.63;;;3.25;;
43809;SDS011;29440;48.208;11.162;2023-06-14T03:57:30;5.75;;;3.05;;
43809;SDS011;29440;48.208;11.162;2023-06-14T03:59:56;6.90;;;3.20;;
43809;SDS011;29440;48.208;11.162;2023-06-14T04:02:22;4.28;;;2.92;;
43809;SDS011;29440;48.208;11.162;2023-06-14T04:04:47;6.55;;;2.92;;
43809;SDS011;29440;48.208;11.162;2023-06-14T04:07:14;8.07;;;3.25;;
43809;SDS011;29440;48.208;11.162;2023-06-14T04:09:40;6.47;;;3.10;;
43809;SDS011;29440;48.208;11.162;2023-06-14T04:12:06;6.30;;;3.38;;
43809;SDS011;29440;48.208;11.162;2023-06-14T04:14:34;5.18;;;3.28;;
43809;SDS011;29440;48.208;11.162;2023-06-14T04:16:59;7.82;;;3.42;;
43809;SDS011;29440;48.208;11.162;2023-06-14T04:19:25;3.85;;;2.75;;
43809;SDS011;29440;48.208;11.162;2023-06-14T04:21:51;6.10;;;3.35;;
43809;SDS011;29440;48.208;11.162;2023-06-14T04:24:17;5.65;;;3.00;;
43809;SDS011;29440;48.208;11.162;2023-06-14T04:26:43;8.60;;;3.75;;
43809;SDS011;29440;48.208;11.162;2023-06-14T04:29:13;5.68;;;3.22;;
43809;SDS011;29440;48.208;11.162;2023-06-14T04:31:41;7.13;;;3.45;;
43809;SDS011;29440;48.208;11.162;2023-06-14T04:34:07;5.07;;;3.40;;
43809;SDS011;29440;48.208;11.162;2023-06-14T04:36:33;5.53;;;3.47;;
43809;SDS011;29440;48.208;11.162;2023-06-14T04:39:02;10.13;;;4.25;;
43809;SDS011;29440;48.208;11.162;2023-06-14T04:41:29;8.43;;;4.50;;
43809;SDS011;29440;48.208;11.162;2023-06-14T04:43:55;10.05;;;4.35;;
43809;SDS011;29440;48.208;11.162;2023-06-14T04:46:29;8.38;;;4.43;;
43809;SDS011;29440;48.208;11.162;2023-06-14T04:48:57;7.70;;;4.07;;
43809;SDS011;29440;48.208;11.162;2023-06-14T04:51:27;8.77;;;4.90;;
43809;SDS011;29440;48.208;11.162;2023-06-14T04:53:57;9.23;;;4.63;;
43809;SDS011;29440;48.208;11.162;2023-06-14T04:56:24;7.60;;;4.50;;
43809;SDS011;29440;48.208;11.162;2023-06-14T04:58:55;7.03;;;4.18;;
43809;SDS011;29440;48.208;11.162;2023-06-14T05:01:21;14.95;;;5.18;;
43809;SDS011;29440;48.208;11.162;2023-06-14T05:03:48;6.90;;;4.15;;
43809;SDS011;29440;48.208;11.162;2023-06-14T05:06:14;13.00;;;5.35;;
43809;SDS011;29440;48.208;11.162;2023-06-14T05:08:41;8.40;;;4.20;;
43809;SDS011;29440;48.208;11.162;2023-06-14T05:11:06;7.65;;;3.88;;
43809;SDS011;29440;48.208;11.162;2023-06-14T05:13:32;8.88;;;4.28;;
43809;SDS011;29440;48.208;11.162;2023-06-14T05:15:59;7.10;;;4.50;;
43809;SDS011;29440;48.208;11.162;2023-06-14T05:18:25;9.50;;;4.28;;
43809;SDS011;29440;48.208;11.162;2023-06-14T05:20:51;6.40;;;3.75;;
43809;SDS011;29440;48.208;11.162;2023-06-14T05:23:16;5.50;;;3.60;;
43809;SDS011;29440;48.208;11.162;2023-06-14T05:25:43;8.95;;;4.30;;
43809;SDS011;29440;48.208;11.162;2023-06-14T05:28:10;8.50;;;4.97;;
43809;SDS011;29440;48.208;11.162;2023-06-14T05:30:37;9.65;;;4.38;;
43809;SDS011;29440;48.208;11.162;2023-06-14T05:33:03;6.78;;;4.57;;
43809;SDS011;29440;48.208;11.162;2023-06-14T05:35:29;8.43;;;4.43;;
43809;SDS011;29440;48.208;11.162;2023-06-14T05:37:54;10.93;;;4.80;;
43809;SDS011;29440;48.208;11.162;2023-06-14T05:40:20;6.43;;;3.63;;
43809;SDS011;29440;48.208;11.162;2023-06-14T05:42:46;6.97;;;3.85;;
43809;SDS011;29440;48.208;11.162;2023-06-14T05:45:11;5.20;;;3.78;;
43809;SDS011;29440;48.208;11.162;2023-06-14T05:47:37;8.32;;;4.10;;
43809;SDS011;29440;48.208;11.162;2023-06-14T05:50:03;7.72;;;4.07;;
43809;SDS011;29440;48.208;11.162;2023-06-14T05:52:29;8.60;;;4.00;;
43809;SDS011;29440;48.208;11.162;2023-06-14T05:54:56;8.85;;;4.35;;
43809;SDS011;29440;48.208;11.162;2023-06-14T05:57:22;7.85;;;3.40;;
43809;SDS011;29440;48.208;11.162;2023-06-14T05:59:47;4.75;;;3.58;;
43809;SDS011;29440;48.208;11.162;2023-06-14T06:02:13;8.70;;;3.78;;
43809;SDS011;29440;48.208;11.162;2023-06-14T06:04:39;6.97;;;3.70;;
43809;SDS011;29440;48.208;11.162;2023-06-14T06:07:04;6.25;;;3.33;;
43809;SDS011;29440;48.208;11.162;2023-06-14T06:09:30;5.95;;;3.63;;
43809;SDS011;29440;48.208;11.162;2023-06-14T06:11:55;8.90;;;3.38;;
43809;SDS011;29440;48.208;11.162;2023-06-14T06:14:21;7.45;;;3.70;;
43809;SDS011;29440;48.208;11.162;2023-06-14T06:16:47;4.78;;;2.97;;
43809;SDS011;29440;48.208;11.162;2023-06-14T06:19:17;5.07;;;3.65;;
43809;SDS011;29440;48.208;11.162;2023-06-14T06:21:43;5.88;;;3.40;;
43809;SDS011;29440;48.208;11.162;2023-06-14T06:24:08;7.97;;;3.15;;
43809;SDS011;29440;48.208;11.162;2023-06-14T06:26:34;5.47;;;3.42;;
43809;SDS011;29440;48.208;11.162;2023-06-14T06:29:00;4.65;;;3.40;;
43809;SDS011;29440;48.208;11.162;2023-06-14T06:31:26;5.90;;;2.65;;
43809;SDS011;29440;48.208;11.162;2023-06-14T06:33:52;4.75;;;3.50;;
43809;SDS011;29440;48.208;11.162;2023-06-14T06:36:19;6.97;;;3.00;;
43809;SDS011;29440;48.208;11.162;2023-06-14T06:38:46;7.03;;;3.30;;
43809;SDS011;29440;48.208;11.162;2023-06-14T06:41:12;5.45;;;3.13;;
43809;SDS011;29440;48.208;11.162;2023-06-14T06:43:38;5.78;;;2.90;;
43809;SDS011;29440;48.208;11.162;2023-06-14T06:46:03;4.68;;;2.78;;
43809;SDS011;29440;48.208;11.162;2023-06-14T06:48:29;5.43;;;2.78;;
43809;SDS011;29440;48.208;11.162;2023-06-14T06:50:55;4.90;;;2.92;;
43809;SDS011;29440;48.208;11.162;2023-06-14T06:53:20;7.28;;;3.20;;
43809;SDS011;29440;48.208;11.162;2023-06-14T06:55:46;6.55;;;2.75;;
43809;SDS011;29440;48.208;11.162;2023-06-14T06:58:12;5.78;;;2.60;;
43809;SDS011;29440;48.208;11.162;2023-06-14T07:00:39;7.38;;;2.90;;
43809;SDS011;29440;48.208;11.162;2023-06-14T07:03:05;8.20;;;2.83;;
43809;SDS011;29440;48.208;11.162;2023-06-14T07:05:31;9.38;;;2.92;;
43809;SDS011;29440;48.208;11.162;2023-06-14T07:07:57;4.22;;;2.38;;
43809;SDS011;29440;48.208;11.162;2023-06-14T07:10:22;4.40;;;2.72;;
43809;SDS011;29440;48.208;11.162;2023-06-14T07:12:49;7.75;;;2.72;;
43809;SDS011;29440;48.208;11.162;2023-06-14T07:15:15;5.35;;;2.83;;
43809;SDS011;29440;48.208;11.162;2023-06-14T07:17:41;4.47;;;2.40;;
43809;SDS011;29440;48.208;11.162;2023-06-14T07:20:07;4.95;;;2.42;;
43809;SDS011;29440;48.208;11.162;2023-06-14T07:22:36;4.70;;;2.53;;
43809;SDS011;29440;48.208;11.162;2023-06-14T07:25:09;3.53;;;2.42;;
43809;SDS011;29440;48.208;11.162;2023-06-14T07:27:37;5.70;;;2.38;;
43809;SDS011;29440;48.208;11.162;2023-06-14T07:30:03;6.43;;;2.50;;
43809;SDS011;29440;48.208;11.162;2023-06-14T07:32:29;6.15;;;2.47;;
43809;SDS011;29440;48.208;11.162;2023-06-14T07:34:55;4.45;;;2.28;;
43809;SDS011;29440;48.208;11.162;2023-06-14T07:37:20;5.38;;;2.67;;
43809;SDS011;29440;48.208;11.162;2023-06-14T07:39:46;3.53;;;2.17;;
43809;SDS011;29440;48.208;11.162;2023-06-14T07:42:11;5.72;;;2.63;;
43809;SDS011;29440;48.208;11.162;2023-06-14T07:44:37;4.18;;;2.33;;
43809;SDS011;29440;48.208;11.162;2023-06-14T07:47:03;7.50;;;2.33;;
43809;SDS011;29440;48.208;11.162;2023-06-14T07:49:29;6.15;;;2.65;;
43809;SDS011;29440;48.208;11.162;2023-06-14T07:51:54;3.10;;;2.50;;
43809;SDS011;29440;48.208;11.162;2023-06-14T07:54:20;5.70;;;2.20;;
43809;SDS011;29440;48.208;11.162;2023-06-14T07:56:49;5.40;;;2.53;;
43809;SDS011;29440;48.208;11.162;2023-06-14T07:59:15;6.15;;;3.05;;
43809;SDS011;29440;48.208;11.162;2023-06-14T08:01:41;5.35;;;2.60;;
43809;SDS011;29440;48.208;11.162;2023-06-14T08:04:11;5.60;;;3.13;;
43809;SDS011;29440;48.208;11.162;2023-06-14T08:06:38;5.72;;;2.35;;
43809;SDS011;29440;48.208;11.162;2023-06-14T08:09:04;9.88;;;2.88;;
43809;SDS011;29440;48.208;11.162;2023-06-14T08:11:30;5.43;;;2.38;;
43809;SDS011;29440;48.208;11.162;2023-06-14T08:13:56;3.63;;;2.47;;
43809;SDS011;29440;48.208;11.162;2023-06-14T08:16:21;5.40;;;2.28;;
43809;SDS011;29440;48.208;11.162;2023-06-14T08:18:48;5.20;;;2.17;;
43809;SDS011;29440;48.208;11.162;2023-06-14T08:21:14;4.45;;;2.10;;
43809;SDS011;29440;48.208;11.162;2023-06-14T08:23:43;3.63;;;2.30;;
43809;SDS011;29440;48.208;11.162;2023-06-14T08:26:08;6.35;;;1.98;;
43809;SDS011;29440;48.208;11.162;2023-06-14T08:28:35;4.47;;;2.15;;
43809;SDS011;29440;48.208;11.162;2023-06-14T08:31:00;4.03;;;1.98;;
43809;SDS011;29440;48.208;11.162;2023-06-14T08:33:26;6.18;;;2.20;;
43809;SDS011;29440;48.208;11.162;2023-06-14T08:35:52;4.85;;;2.05;;
43809;SDS011;29440;48.208;11.162;2023-06-14T08:38:18;4.18;;;1.90;;
43809;SDS011;29440;48.208;11.162;2023-06-14T08:40:45;6.68;;;1.95;;
43809;SDS011;29440;48.208;11.162;2023-06-14T08:43:15;2.33;;;1.73;;
43809;SDS011;29440;48.208;11.162;2023-06-14T08:45:40;5.50;;;2.00;;
43809;SDS011;29440;48.208;11.162;2023-06-14T08:48:06;6.25;;;2.03;;
43809;SDS011;29440;48.208;11.162;2023-06-14T08:50:32;3.97;;;1.67;;
43809;SDS011;29440;48.208;11.162;2023-06-14T08:53:01;5.07;;;1.67;;
43809;SDS011;29440;48.208;11.162;2023-06-14T08:55:28;2.92;;;1.80;;
43809;SDS011;29440;48.208;11.162;2023-06-14T08:57:56;5.32;;;2.33;;
43809;SDS011;29440;48.208;11.162;2023-06-14T09:00:24;2.97;;;1.60;;
43809;SDS011;29440;48.208;11.162;2023-06-14T09:02:52;6.28;;;1.80;;
43809;SDS011;29440;48.208;11.162;2023-06-14T09:05:24;5.35;;;2.00;;
43809;SDS011;29440;48.208;11.162;2023-06-14T09:07:50;3.70;;;1.73;;
43809;SDS011;29440;48.208;11.162;2023-06-14T09:10:16;5.35;;;2.00;;
43809;SDS011;29440;48.208;11.162;2023-06-14T09:12:42;2.58;;;1.80;;
43809;SDS011;29440;48.208;11.162;2023-06-14T09:15:08;6.13;;;1.77;;
43809;SDS011;29440;48.208;11.162;2023-06-14T09:17:34;5.35;;;2.10;;
43809;SDS011;29440;48.208;11.162;2023-06-14T09:20:01;7.18;;;1.92;;
43809;SDS011;29440;48.208;11.162;2023-06-14T09:22:31;3.50;;;1.95;;
43809;SDS011;29440;48.208;11.162;2023-06-14T09:24:58;4.10;;;1.90;;
43809;SDS011;29440;48.208;11.162;2023-06-14T09:27:27;3.45;;;1.75;;
43809;SDS011;29440;48.208;11.162;2023-06-14T09:29:53;5.28;;;1.63;;
43809;SDS011;29440;48.208;11.162;2023-06-14T09:32:20;4.30;;;1.95;;
43809;SDS011;29440;48.208;11.162;2023-06-14T09:34:46;5.80;;;1.85;;
43809;SDS011;29440;48.208;11.162;2023-06-14T09:37:12;3.45;;;1.92;;
43809;SDS011;29440;48.208;11.162;2023-06-14T09:39:49;2.75;;;1.65;;
43809;SDS011;29440;48.208;11.162;2023-06-14T09:42:16;4.28;;;1.83;;
43809;SDS011;29440;48.208;11.162;2023-06-14T09:44:48;6.97;;;2.08;;
43809;SDS011;29440;48.208;11.162;2023-06-14T09:47:17;4.50;;;1.65;;
43809;SDS011;29440;48.208;11.162;2023-06-14T09:49:43;2.45;;;1.63;;
43809;SDS011;29440;48.208;11.162;2023-06-14T09:52:16;2.55;;;1.70;;
43809;SDS011;29440;48.208;11.162;2023-06-14T09:54:43;4.35;;;1.90;;
43809;SDS011;29440;48.208;11.162;2023-06-14T09:57:20;5.05;;;2.05;;
43809;SDS011;29440;48.208;11.162;2023-06-14T09:59:47;3.92;;;1.73;;
43809;SDS011;29440;48.208;11.162;2023-06-14T10:02:27;2.80;;;1.40;;
43809;SDS011;29440;48.208;11.162;2023-06-14T10:07:31;8.80;;;1.85;;
43809;SDS011;29440;48.208;11.162;2023-06-14T10:10:00;6.72;;;1.80;;
43809;SDS011;29440;48.208;11.162;2023-06-14T10:12:26;6.28;;;1.85;;
43809;SDS011;29440;48.208;11.162;2023-06-14T10:14:52;3.78;;;1.88;;
43809;SDS011;29440;48.208;11.162;2023-06-14T10:17:27;4.40;;;1.77;;
43809;SDS011;29440;48.208;11.162;2023-06-14T10:23:18;3.70;;;1.98;;
43809;SDS011;29440;48.208;11.162;2023-06-14T10:25:50;5.20;;;1.83;;
43809;SDS011;29440;48.208;11.162;2023-06-14T10:28:21;5.93;;;1.70;;
43809;SDS011;29440;48.208;11.162;2023-06-14T10:31:11;5.35;;;1.83;;
43809;SDS011;29440;48.208;11.162;2023-06-14T10:33:39;5.10;;;2.13;;
43809;SDS011;29440;48.208;11.162;2023-06-14T10:41:32;6.05;;;2.15;;
43809;SDS011;29440;48.208;11.162;2023-06-14T10:49:17;3.47;;;2.20;;
43809;SDS011;29440;48.208;11.162;2023-06-14T10:51:49;3.65;;;2.20;;
43809;SDS011;29440;48.208;11.162;2023-06-14T10:54:16;3.90;;;2.03;;
43809;SDS011;29440;48.208;11.162;2023-06-14T10:56:48;4.07;;;1.95;;
43809;SDS011;29440;48.208;11.162;2023-06-14T10:59:16;5.97;;;2.13;;
43809;SDS011;29440;48.208;11.162;2023-06-14T11:04:48;3.67;;;1.95;;
43809;SDS011;29440;48.208;11.162;2023-06-14T11:10:25;3.17;;;1.80;;
43809;SDS011;29440;48.208;11.162;2023-06-14T11:13:03;5.03;;;1.93;;
43809;SDS011;29440;48.208;11.162;2023-06-14T11:15:30;3.17;;;1.80;;
43809;SDS011;29440;48.208;11.162;2023-06-14T11:17:56;5.50;;;1.88;;
43809;SDS011;29440;48.208;11.162;2023-06-14T11:20:26;3.97;;;2.58;;
43809;SDS011;29440;48.208;11.162;2023-06-14T11:22:53;4.35;;;2.10;;
43809;SDS011;29440;48.208;11.162;2023-06-14T11:25:19;4.63;;;2.72;;
43809;SDS011;29440;48.208;11.162;2023-06-14T11:27:45;4.93;;;2.13;;
43809;SDS011;29440;48.208;11.162;2023-06-14T11:30:12;3.63;;;2.15;;
43809;SDS011;29440;48.208;11.162;2023-06-14T11:32:38;4.30;;;2.15;;
43809;SDS011;29440;48.208;11.162;2023-06-14T11:35:04;5.38;;;2.00;;
43809;SDS011;29440;48.208;11.162;2023-06-14T11:37:30;5.85;;;2.13;;
43809;SDS011;29440;48.208;11.162;2023-06-14T11:40:02;5.25;;;2.10;;
43809;SDS011;29440;48.208;11.162;2023-06-14T11:42:36;5.50;;;2.03;;
43809;SDS011;29440;48.208;11.162;2023-06-14T11:45:03;3.58;;;1.90;;
43809;SDS011;29440;48.208;11.162;2023-06-14T11:47:33;5.38;;;1.80;;
43809;SDS011;29440;48.208;11.162;2023-06-14T11:50:00;4.22;;;1.98;;
43809;SDS011;29440;48.208;11.162;2023-06-14T11:52:26;5.05;;;2.17;;
43809;SDS011;29440;48.208;11.162;2023-06-14T11:54:52;3.40;;;2.00;;
43809;SDS011;29440;48.208;11.162;2023-06-14T11:57:19;3.75;;;2.03;;
43809;SDS011;29440;48.208;11.162;2023-06-14T11:59:45;4.88;;;2.20;;
43809;SDS011;29440;48.208;11.162;2023-06-14T12:02:14;4.85;;;2.03;;
43809;SDS011;29440;48.208;11.162;2023-06-14T12:04:41;4.47;;;1.98;;
43809;SDS011;29440;48.208;11.162;2023-06-14T12:07:14;6.20;;;2.20;;
43809;SDS011;29440;48.208;11.162;2023-06-14T12:09:42;4.22;;;2.42;;
43809;SDS011;29440;48.208;11.162;2023-06-14T12:12:28;3.67;;;2.22;;
43809;SDS011;29440;48.208;11.162;2023-06-14T12:14:54;4.70;;;2.00;;
43809;SDS011;29440;48.208;11.162;2023-06-14T12:17:21;4.57;;;2.33;;
43809;SDS011;29440;48.208;11.162;2023-06-14T12:19:48;3.67;;;1.83;;
43809;SDS011;29440;48.208;11.162;2023-06-14T12:22:15;4.07;;;2.25;;
43809;SDS011;29440;48.208;11.162;2023-06-14T12:24:45;4.50;;;1.90;;
43809;SDS011;29440;48.208;11.162;2023-06-14T12:27:11;3.08;;;1.88;;
43809;SDS011;29440;48.208;11.162;2023-06-14T12:29:40;5.57;;;1.73;;
43809;SDS011;29440;48.208;11.162;2023-06-14T12:32:08;6.38;;;1.95;;
43809;SDS011;29440;48.208;11.162;2023-06-14T12:34:34;3.20;;;2.15;;
43809;SDS011;29440;48.208;11.162;2023-06-14T12:37:00;3.72;;;1.90;;
43809;SDS011;29440;48.208;11.162;2023-06-14T12:39:26;2.63;;;1.80;;
43809;SDS011;29440;48.208;11.162;2023-06-14T12:41:52;4.97;;;2.20;;
43809;SDS011;29440;48.208;11.162;2023-06-14T12:44:19;4.07;;;1.80;;
43809;SDS011;29440;48.208;11.162;2023-06-14T12:46:44;6.70;;;1.88;;
43809;SDS011;29440;48.208;11.162;2023-06-14T12:49:11;6.70;;;2.25;;
43809;SDS011;29440;48.208;11.162;2023-06-14T12:51:37;5.30;;;2.05;;
43809;SDS011;29440;48.208;11.162;2023-06-14T12:54:03;4.75;;;1.85;;
43809;SDS011;29440;48.208;11.162;2023-06-14T12:56:29;3.00;;;2.00;;
43809;SDS011;29440;48.208;11.162;2023-06-14T12:58:55;4.22;;;2.20;;
43809;SDS011;29440;48.208;11.162;2023-06-14T13:01:20;4.82;;;2.05;;
43809;SDS011;29440;48.208;11.162;2023-06-14T13:03:46;3.70;;;1.98;;
43809;SDS011;29440;48.208;11.162;2023-06-14T13:06:12;2.28;;;1.63;;
43809;SDS011;29440;48.208;11.162;2023-06-14T13:08:38;5.05;;;1.98;;
43809;SDS011;29440;48.208;11.162;2023-06-14T13:11:03;4.68;;;2.05;;
43809;SDS011;29440;48.208;11.162;2023-06-14T13:13:29;4.20;;;2.33;;
43809;SDS011;29440;48.208;11.162;2023-06-14T13:15:54;4.95;;;2.42;;
43809;SDS011;29440;48.208;11.162;2023-06-14T13:18:20;2.55;;;2.17;;
43809;SDS011;29440;48.208;11.162;2023-06-14T13:20:46;4.50;;;2.13;;
43809;SDS011;29440;48.208;11.162;2023-06-14T13:23:12;3.20;;;1.88;;
43809;SDS011;29440;48.208;11.162;2023-06-14T13:25:38;4.50;;;2.35;;
43809;SDS011;29440;48.208;11.162;2023-06-14T13:28:05;3.20;;;1.77;;
43809;SDS011;29440;48.208;11.162;2023-06-14T13:30:31;3.85;;;2.30;;
43809;SDS011;29440;48.208;11.162;2023-06-14T13:32:57;3.92;;;1.80;;
43809;SDS011;29440;48.208;11.162;2023-06-14T13:35:23;6.00;;;2.30;;
43809;SDS011;29440;48.208;11.162;2023-06-14T13:37:49;7.55;;;2.33;;
43809;SDS011;29440;48.208;11.162;2023-06-14T13:40:15;6.70;;;2.22;;
43809;SDS011;29440;48.208;11.162;2023-06-14T13:42:40;3.10;;;1.85;;
43809;SDS011;29440;48.208;11.162;2023-06-14T13:45:06;4.32;;;1.95;;
43809;SDS011;29440;48.208;11.162;2023-06-14T13:47:32;6.55;;;2.10;;
43809;SDS011;29440;48.208;11.162;2023-06-14T13:49:58;2.72;;;2.00;;
43809;SDS011;29440;48.208;11.162;2023-06-14T13:52:24;4.68;;;2.10;;
43809;SDS011;29440;48.208;11.162;2023-06-14T13:54:50;3.47;;;2.13;;
43809;SDS011;29440;48.208;11.162;2023-06-14T13:57:16;5.55;;;2.10;;
43809;SDS011;29440;48.208;11.162;2023-06-14T13:59:42;6.40;;;2.30;;
43809;SDS011;29440;48.208;11.162;2023-06-14T14:02:11;4.25;;;1.95;;
43809;SDS011;29440;48.208;11.162;2023-06-14T14:04:37;6.53;;;1.88;;
43809;SDS011;29440;48.208;11.162;2023-06-14T14:07:04;5.13;;;2.17;;
43809;SDS011;29440;48.208;11.162;2023-06-14T14:09:30;5.15;;;2.92;;
43809;SDS011;29440;48.208;11.162;2023-06-14T14:12:02;4.93;;;1.88;;
43809;SDS011;29440;48.208;11.162;2023-06-14T14:14:29;2.55;;;1.90;;
43809;SDS011;29440;48.208;11.162;2023-06-14T14:16:57;3.10;;;1.50;;
43809;SDS011;29440;48.208;11.162;2023-06-14T14:19:22;4.60;;;1.83;;
43809;SDS011;29440;48.208;11.162;2023-06-14T14:21:49;2.33;;;1.75;;
43809;SDS011;29440;48.208;11.162;2023-06-14T14:24:15;3.22;;;1.95;;
43809;SDS011;29440;48.208;11.162;2023-06-14T14:26:41;4.28;;;2.20;;
43809;SDS011;29440;48.208;11.162;2023-06-14T14:29:06;5.47;;;2.20;;
43809;SDS011;29440;48.208;11.162;2023-06-14T14:31:33;3.58;;;1.83;;
43809;SDS011;29440;48.208;11.162;2023-06-14T14:33:59;4.15;;;2.20;;
43809;SDS011;29440;48.208;11.162;2023-06-14T14:36:24;6.00;;;2.00;;
43809;SDS011;29440;48.208;11.162;2023-06-14T14:38:50;6.60;;;1.90;;
43809;SDS011;29440;48.208;11.162;2023-06-14T14:41:16;6.78;;;1.80;;
43809;SDS011;29440;48.208;11.162;2023-06-14T14:43:42;5.47;;;1.80;;
43809;SDS011;29440;48.208;11.162;2023-06-14T14:46:07;3.13;;;1.70;;
43809;SDS011;29440;48.208;11.162;2023-06-14T14:48:33;4.65;;;1.88;;
43809;SDS011;29440;48.208;11.162;2023-06-14T14:50:59;5.53;;;2.40;;
43809;SDS011;29440;48.208;11.162;2023-06-14T14:53:24;9.27;;;2.03;;
43809;SDS011;29440;48.208;11.162;2023-06-14T14:55:50;4.45;;;1.73;;
43809;SDS011;29440;48.208;11.162;2023-06-14T14:58:15;5.63;;;1.98;;